Bangkok, Thailand
Current Conditions -  °F | °C
As of 7:00 PM on Tuesday 21 Oct 2014 (Local Time) from VTBD Reporting Station
Broken Clouds Broken Clouds  
Wind Chill: 84°   Ceiling: 30000
Heat Index: 92°   Visibility: 6mi
Dew Point: 75°   Wind: 6mph
Humidity: 74%   Direction: 340°NNW
Pressure: 29.83"   Gusts: NA
Location:  13.73°N, 100.5°E
Report Text: VTBD 211200Z 34005KT 9999 FEW020 BKN300 29/24 Q1010 NOSIG
Loading
Personal Weather Stations






























Interactive Weather Map
Tropical Storm Tracking
New forecast layout! Learn more

10-Day Weather Forecast

Advertisements
Track Severe Weather on mobile